AirNav   TITAN Aviation Fuels
 
 1671 users online  

WN72 Kinch Farms Airport
Washtucna, Washington, USA

GOING TO WASHTUCNA?


FAA INFORMATION EFFECTIVE 04 NOVEMBER 2021

Location

FAA Identifier: WN72
Lat/Long: 46-52-00.3100N 118-19-17.5400W
46-52.005167N 118-19.292333W
46.8667528,-118.3215389
(estimated)
Elevation: 1650 ft. / 503 m (estimated)
Variation: 19E (1985)
From city: 8 miles N of WASHTUCNA, WA
Time zone: UTC -7 (UTC -8 during Standard Time)
Zip code: 99371

Airport Operations

Airport use: Private use. Permission required prior to landing
Activation date: 01/1987
Control tower: no
ARTCC: SEATTLE CENTER
FSS: SEATTLE FLIGHT SERVICE STATION
Attendance: MAR-NOV DAWN-2300
Wind indicator: yes
Segmented circle: no

Airport Services

Fuel available: 100

Runway Information

Runway 3/21

Dimensions: 1700 x 28 ft. / 518 x 9 m
Surface: turf
RUNWAY 3  RUNWAY 21
Traffic pattern: leftleft

Airport Ownership and Management from official FAA records

Ownership: Privately-owned
Owner: RODERICK KINCH
HCR 1, BOX 307
WASHTUCNA, WA 99371
Phone 509-646-3450
Manager: RODERICK KINCH
HCR 1, BOX 307
WASHTUCNA, WA 99371
Phone 509-646-3450

Airport Operational Statistics

Aircraft based on the field: 1
Single engine airplanes: 1
    

Additional Remarks

FOR CD CTC SEATTLE ARTCC AT 253-351-3694.

Instrument Procedures

There are no published instrument procedures at WN72.

Some nearby airports with instrument procedures:

KMWH - Grant County International Airport (46 nm NW)
KALW - Walla Walla Regional Airport (46 nm S)
KPSC - Tri-Cities Airport (49 nm SW)
KPUW - Pullman/Moscow Regional Airport (50 nm E)
KSKA - Fairchild Air Force Base (52 nm NE)
 
Loc | Ops | Rwys | IFR | FBO | Links
Com | Nav | Svcs | Stats | Notes
Area around WN72 (Kinch Farms Airport)
 
Road maps at: MapQuest Bing Google
 
Aerial photo
No photo
 
Sectional chart

 
Airport distance calculator
Flying to Kinch Farms Airport? Find the distance to fly.

From to WN72

Sunrise and sunset
Times for 30-Nov-2021
 Local
(UTC-8)
 Zulu
(UTC)
Morning civil twilight06:4314:43
Sunrise07:1815:18
Sunset16:0600:06
Evening civil twilight16:4100:41

Current date and time
Zulu (UTC)  30-Nov-2021 17:41:58
Local (UTC-8)  30-Nov-2021 09:41:58
 
METAR
KMWH 
45nm NW 
301652Z 00000KT 10SM SCT080 11/06 A3008 RMK AO2 SLP190 T01060061
KALW 
46nm S 
301653Z 20011KT 10SM OVC095 13/03 A3016 RMK AO2 SLP215 T01280028
KPSC 
49nm SW 
301653Z 23016G27KT 10SM BKN100 OVC110 15/08 A3012 RMK AO2 PK WND 23027/1651 SLP198 T01500083
KPUW 
50nm E 
301653Z AUTO 13011KT 10SM BKN034 BKN060 OVC090 06/02 A3016 RMK AO2 RAE45 SLP228 P0001 T00610022
TAF
KMWH 
45nm NW 
301138Z 3012/0112 17007KT P6SM BKN150 FM301800 20009G15KT P6SM BKN050 FM010200 20010KT P6SM BKN060 FM010800 20006KT P6SM BKN100
KALW 
46nm S 
301125Z 3012/0112 VRB03KT P6SM OVC150 FM301800 19010KT P6SM SCT040 OVC100 FM302000 20010G18KT P6SM OVC050 FM010200 19010KT P6SM OVC050
KPSC 
49nm SW 
300540Z 3006/0106 18003KT P6SM OVC250 FM301500 22006KT P6SM SCT100 OVC250 FM301800 22011KT P6SM BKN100
KPUW 
50nm E 
300520Z 3006/0106 11008KT P6SM SCT045 BKN100 FM301400 18006KT 6SM BR BKN003 OVC100 FM301600 19008KT P6SM BKN050 FM301900 23011G20KT P6SM BKN050 FM010000 21010KT P6SM BKN050
NOTAMs
Click for the latest NOTAMs
NOTAMs are issued by the DoD/FAA and will open in a separate window not controlled by AirNav.

 

 
 

Would you like to see your business listed on this page?

 If your business provides an interesting product or service to pilots, flight crews, aircraft, or users of the Kinch Farms Airport, you should consider listing it here.  To start the listing process, click on the button below
 
Add a business
 

Other Pages about Kinch Farms Airport

Update a link
 
Copyright © AirNav, LLC. All rights reserved. Privacy Policy  Contact